Terminal Aerodrome Forecast
Issued by NWS Quad Cities IA IL

Home | Current Version | Previous Version | Text Only | Print | Product List | Glossary On
Versions: 1 2 3 4 5 6 7 8 9 10 11 12 13 14 15 16 17 18 19 20
000
FTUS43 KDVN 151731
TAFMLI
TAF
KMLI 151731Z 1518/1618 26013KT P6SM BKN040
     FM152200 25009KT P6SM BKN050
     FM160000 22008KT P6SM BKN100
     FM161200 20005KT P6SM SKC=

USA.gov is the U.S. government's official web portal to all federal, state and local government web resources and services.